createdAt,value
2019-05-29T00:00:54.311Z,0.00
2019-05-29T00:01:54.313Z,0.00
2019-05-29T00:02:54.281Z,0.00
2019-05-29T00:03:54.271Z,0.00
2019-05-29T00:04:54.251Z,0.00
2019-05-29T00:05:54.244Z,0.00
2019-05-29T00:06:54.229Z,0.00
2019-05-29T00:07:54.280Z,0.00
2019-05-29T00:08:54.210Z,0.00
2019-05-29T00:09:54.222Z,0.00
2019-05-29T00:10:54.184Z,0.00
2019-05-29T00:11:54.174Z,0.00
2019-05-29T00:12:54.169Z,0.00
2019-05-29T00:13:54.245Z,0.00
2019-05-29T00:14:54.145Z,0.00
2019-05-29T00:15:54.133Z,0.00
2019-05-29T00:16:54.116Z,0.00
2019-05-29T00:17:54.129Z,0.00
2019-05-29T00:18:55.190Z,0.00
2019-05-29T00:19:54.161Z,0.00
2019-05-29T00:20:54.090Z,0.00
2019-05-29T00:21:54.061Z,0.00
2019-05-29T00:22:54.051Z,0.00
2019-05-29T00:23:54.043Z,0.00
2019-05-29T00:24:54.031Z,0.00
2019-05-29T00:25:54.106Z,0.00
2019-05-29T00:26:54.010Z,0.00
2019-05-29T00:27:53.993Z,0.00
2019-05-29T00:28:53.983Z,0.00
2019-05-29T00:29:54.064Z,0.00
2019-05-29T00:30:53.965Z,0.00
2019-05-29T00:31:53.952Z,0.00
2019-05-29T00:32:53.938Z,0.00
2019-05-29T00:33:53.929Z,0.00
2019-05-29T00:34:53.964Z,0.00
2019-05-29T00:35:53.904Z,0.00
2019-05-29T00:36:53.898Z,0.00
2019-05-29T00:37:53.883Z,0.00
2019-05-29T00:38:53.892Z,0.00
2019-05-29T00:39:53.865Z,0.00
2019-05-29T00:40:53.963Z,0.00
2019-05-29T00:41:53.840Z,0.00
2019-05-29T00:42:53.834Z,0.00
2019-05-29T00:43:53.823Z,0.00
2019-05-29T00:44:53.810Z,0.00
2019-05-29T00:45:53.821Z,0.00
2019-05-29T00:46:53.787Z,0.00
2019-05-29T00:47:53.769Z,0.00
2019-05-29T00:48:53.762Z,0.00
2019-05-29T00:49:53.751Z,0.00
2019-05-29T00:50:53.762Z,0.00
2019-05-29T00:51:53.723Z,0.00
2019-05-29T00:52:53.712Z,0.00
2019-05-29T00:53:53.702Z,0.00
2019-05-29T00:54:53.691Z,0.00
2019-05-29T00:55:53.718Z,0.00
2019-05-29T00:56:53.709Z,0.00
2019-05-29T00:57:53.657Z,0.00
2019-05-29T00:58:53.741Z,0.00
2019-05-29T00:59:53.632Z,0.00
2019-05-29T01:00:53.637Z,0.00
2019-05-29T01:01:53.636Z,0.00
2019-05-29T01:02:53.604Z,0.00
2019-05-29T01:03:53.592Z,0.00
2019-05-29T01:04:53.695Z,0.00
2019-05-29T01:05:53.571Z,0.00
2019-05-29T01:06:53.562Z,0.00
2019-05-29T01:07:53.543Z,0.00
2019-05-29T01:08:53.624Z,0.00
2019-05-29T01:09:53.534Z,0.00
2019-05-29T01:10:53.509Z,0.00
2019-05-29T01:11:53.504Z,0.00
2019-05-29T01:12:53.605Z,0.00
2019-05-29T01:13:53.482Z,0.00
2019-05-29T01:14:53.465Z,0.00
2019-05-29T01:15:53.455Z,0.00
2019-05-29T01:16:53.447Z,0.00
2019-05-29T01:17:53.430Z,0.00
2019-05-29T01:18:53.512Z,0.00
2019-05-29T01:19:53.491Z,0.00
2019-05-29T01:20:53.403Z,0.00
2019-05-29T01:21:53.386Z,0.00
2019-05-29T01:22:53.384Z,0.00
2019-05-29T01:23:53.453Z,0.00
2019-05-29T01:24:53.410Z,0.00
2019-05-29T01:25:53.434Z,0.00
2019-05-29T01:26:53.334Z,0.00
2019-05-29T01:27:53.323Z,0.00
2019-05-29T01:28:53.413Z,0.00
2019-05-29T01:29:53.300Z,0.00
2019-05-29T01:30:53.295Z,0.00
2019-05-29T01:31:53.275Z,0.00
2019-05-29T01:32:53.261Z,0.00
2019-05-29T01:33:53.261Z,0.00
2019-05-29T01:34:53.331Z,0.00
2019-05-29T01:35:53.232Z,0.00
2019-05-29T01:36:53.223Z,0.00
2019-05-29T01:37:53.206Z,0.00
2019-05-29T01:38:53.209Z,0.00
2019-05-29T01:39:53.292Z,0.00
2019-05-29T01:40:53.174Z,0.00
2019-05-29T01:41:53.167Z,0.00
2019-05-29T01:42:53.162Z,0.00
2019-05-29T01:43:53.144Z,0.00
2019-05-29T01:45:06.695Z,0.00
2019-05-29T01:45:54.212Z,0.00
2019-05-29T01:46:53.109Z,0.00
2019-05-29T01:47:53.124Z,0.00
2019-05-29T01:48:53.086Z,0.00
2019-05-29T01:49:53.077Z,0.00
2019-05-29T01:50:53.098Z,0.00
2019-05-29T01:51:53.060Z,0.00
2019-05-29T01:52:53.044Z,0.00
2019-05-29T01:53:53.033Z,0.00
2019-05-29T01:54:53.019Z,0.00
2019-05-29T01:55:53.099Z,0.00
2019-05-29T01:56:52.996Z,0.00
2019-05-29T01:57:52.989Z,0.00
2019-05-29T01:58:53.017Z,0.00
2019-05-29T01:59:52.968Z,0.00
2019-05-29T02:00:52.953Z,0.00
2019-05-29T02:01:52.977Z,0.00
2019-05-29T02:02:52.930Z,0.00
2019-05-29T02:03:52.952Z,0.00
2019-05-29T02:04:52.913Z,0.00
2019-05-29T02:05:52.937Z,0.00
2019-05-29T02:06:52.925Z,0.00
2019-05-29T02:07:52.918Z,0.00
2019-05-29T02:08:52.868Z,0.00
2019-05-29T02:09:52.867Z,0.00
2019-05-29T02:10:52.841Z,0.00
2019-05-29T02:11:52.830Z,0.00
2019-05-29T02:12:52.924Z,0.00
2019-05-29T02:13:52.813Z,0.00
2019-05-29T02:14:52.804Z,0.00
2019-05-29T02:15:52.795Z,0.00
2019-05-29T02:16:52.784Z,0.00
2019-05-29T02:17:52.775Z,0.00
2019-05-29T02:18:52.850Z,0.00
2019-05-29T02:19:52.744Z,4.00
2019-05-29T02:20:52.734Z,4.00
2019-05-29T02:21:52.731Z,4.00
2019-05-29T02:22:52.712Z,4.00
2019-05-29T02:23:52.794Z,0.00
2019-05-29T02:24:52.693Z,0.00
2019-05-29T02:25:52.682Z,4.00
2019-05-29T02:26:52.709Z,4.00
2019-05-29T02:27:52.659Z,4.00
2019-05-29T02:28:52.739Z,4.00
2019-05-29T02:29:52.637Z,4.00
2019-05-29T02:30:52.629Z,4.00
2019-05-29T02:31:52.625Z,8.00
2019-05-29T02:32:52.608Z,8.00
2019-05-29T02:33:52.682Z,8.00
2019-05-29T02:34:52.677Z,8.00
2019-05-29T02:35:52.570Z,8.00
2019-05-29T02:36:52.567Z,8.00
2019-05-29T02:37:52.546Z,12.00
2019-05-29T02:38:52.542Z,16.00
2019-05-29T02:39:52.531Z,16.00
2019-05-29T02:40:52.635Z,16.00
2019-05-29T02:41:52.506Z,16.00
2019-05-29T02:42:52.498Z,16.00
2019-05-29T02:43:52.486Z,16.00
2019-05-29T02:44:52.563Z,20.00
2019-05-29T02:45:54.380Z,24.00
2019-05-29T02:46:52.449Z,28.00
2019-05-29T02:47:52.436Z,28.00
2019-05-29T02:48:52.429Z,32.00
2019-05-29T02:49:52.506Z,32.00
2019-05-29T02:50:52.442Z,36.00
2019-05-29T02:51:52.397Z,40.00
2019-05-29T02:52:52.390Z,40.00
2019-05-29T02:53:52.370Z,44.00
2019-05-29T02:54:52.364Z,44.00
2019-05-29T02:55:52.353Z,48.00
2019-05-29T02:56:52.386Z,52.00
2019-05-29T02:57:52.467Z,56.00
2019-05-29T02:58:52.314Z,56.00
2019-05-29T02:59:52.303Z,60.00
2019-05-29T03:00:52.295Z,64.00
2019-05-29T03:01:52.287Z,64.00
2019-05-29T03:02:52.272Z,72.00
2019-05-29T03:03:52.352Z,76.00
2019-05-29T03:04:52.252Z,80.00
2019-05-29T03:05:52.244Z,84.00
2019-05-29T03:06:52.243Z,84.00
2019-05-29T03:07:52.219Z,88.00
2019-05-29T03:08:52.207Z,92.00
2019-05-29T03:09:52.193Z,96.00
2019-05-29T03:10:52.191Z,100.00
2019-05-29T03:11:52.262Z,100.00
2019-05-29T03:12:52.169Z,108.00
2019-05-29T03:13:52.154Z,112.00
2019-05-29T03:14:52.137Z,116.00
2019-05-29T03:16:08.523Z,124.00
2019-05-29T03:16:53.207Z,128.00
2019-05-29T03:17:52.672Z,132.00
2019-05-29T03:18:52.098Z,140.00
2019-05-29T03:19:52.085Z,148.00
2019-05-29T03:20:52.083Z,156.00
2019-05-29T03:21:52.180Z,172.00
2019-05-29T03:22:52.052Z,188.00
2019-05-29T03:23:52.133Z,212.00
2019-05-29T03:24:52.029Z,236.00
2019-05-29T03:25:52.020Z,252.00
2019-05-29T03:26:52.003Z,264.00
2019-05-29T03:27:51.997Z,284.00
2019-05-29T03:28:52.095Z,304.00
2019-05-29T03:29:52.015Z,324.00
2019-05-29T03:30:52.005Z,344.00
2019-05-29T03:31:51.986Z,368.00
2019-05-29T03:32:51.949Z,388.00
2019-05-29T03:33:51.929Z,404.00
2019-05-29T03:34:51.921Z,420.00
2019-05-29T03:35:51.946Z,424.00
2019-05-29T03:36:51.904Z,432.00
2019-05-29T03:37:51.886Z,444.00
2019-05-29T03:38:51.874Z,460.00
2019-05-29T03:39:51.953Z,476.00
2019-05-29T03:40:51.853Z,508.00
2019-05-29T03:41:51.837Z,524.00
2019-05-29T03:42:51.832Z,544.00
2019-05-29T03:43:51.818Z,568.00
2019-05-29T03:44:51.879Z,592.00
2019-05-29T03:45:51.798Z,612.00
2019-05-29T03:46:51.802Z,628.00
2019-05-29T03:47:51.779Z,644.00
2019-05-29T03:48:51.761Z,652.00
2019-05-29T03:49:51.837Z,664.00
2019-05-29T03:50:51.740Z,672.00
2019-05-29T03:51:51.724Z,676.00
2019-05-29T03:52:51.722Z,664.00
2019-05-29T03:53:51.719Z,648.00
2019-05-29T03:54:51.699Z,644.00
2019-05-29T03:55:51.796Z,632.00
2019-05-29T03:56:51.677Z,608.00
2019-05-29T03:57:51.660Z,572.00
2019-05-29T03:58:51.651Z,544.00
2019-05-29T03:59:51.646Z,536.00
2019-05-29T04:00:51.673Z,532.00
2019-05-29T04:01:58.766Z,512.00
2019-05-29T04:02:51.611Z,500.00
2019-05-29T04:03:51.609Z,500.00
2019-05-29T04:04:51.589Z,504.00
2019-05-29T04:05:51.572Z,512.00
2019-05-29T04:06:51.566Z,512.00
2019-05-29T04:07:51.550Z,500.00
2019-05-29T04:08:51.650Z,500.00
2019-05-29T04:09:51.525Z,516.00
2019-05-29T04:10:51.515Z,544.00
2019-05-29T04:11:51.509Z,560.00
2019-05-29T04:12:51.499Z,576.00
2019-05-29T04:13:51.487Z,592.00
2019-05-29T04:14:51.497Z,600.00
2019-05-29T04:15:51.529Z,600.00
2019-05-29T04:16:59.715Z,604.00
2019-05-29T04:17:52.435Z,620.00
2019-05-29T04:18:51.442Z,644.00
2019-05-29T04:19:51.416Z,672.00
2019-05-29T04:20:51.410Z,708.00
2019-05-29T04:21:51.487Z,764.00
2019-05-29T04:22:51.380Z,832.00
2019-05-29T04:23:51.370Z,900.00
2019-05-29T04:24:51.400Z,964.00
2019-05-29T04:25:51.355Z,1036.00
2019-05-29T04:26:51.447Z,1076.00
2019-05-29T04:27:51.333Z,1080.00
2019-05-29T04:28:51.323Z,1100.00
2019-05-29T04:29:51.304Z,1124.00
2019-05-29T04:30:51.298Z,1168.00
2019-05-29T04:31:51.345Z,1252.00
2019-05-29T04:32:51.285Z,1340.00
2019-05-29T04:33:51.266Z,1392.00
2019-05-29T04:34:51.273Z,1452.00
2019-05-29T04:35:51.249Z,1516.00
2019-05-29T04:36:51.343Z,1572.00
2019-05-29T04:37:51.226Z,1628.00
2019-05-29T04:38:51.209Z,1684.00
2019-05-29T04:39:51.195Z,1696.00
2019-05-29T04:40:51.189Z,1700.00
2019-05-29T04:41:51.177Z,1732.00
2019-05-29T04:42:51.234Z,1840.00
2019-05-29T04:43:51.183Z,1980.00
2019-05-29T04:44:51.143Z,2108.00
2019-05-29T04:45:51.129Z,2220.00
2019-05-29T04:47:07.081Z,2320.00
2019-05-29T04:47:52.115Z,2432.00
2019-05-29T04:48:51.144Z,2572.00
2019-05-29T04:49:51.090Z,2740.00
2019-05-29T04:50:51.086Z,2900.00
2019-05-29T04:51:51.060Z,3076.00
2019-05-29T04:52:51.122Z,3236.00
2019-05-29T04:53:51.045Z,3316.00
2019-05-29T04:54:51.123Z,3352.00
2019-05-29T04:55:51.014Z,3332.00
2019-05-29T04:56:51.036Z,3268.00
2019-05-29T04:57:51.126Z,3224.00
2019-05-29T04:58:51.007Z,3156.00
2019-05-29T04:59:50.971Z,3080.00
2019-05-29T05:00:59.201Z,3136.00
2019-05-29T05:01:51.948Z,3188.00
2019-05-29T05:02:50.944Z,3260.00
2019-05-29T05:03:51.049Z,3424.00
2019-05-29T05:04:50.986Z,3564.00
2019-05-29T05:05:50.961Z,3632.00
2019-05-29T05:06:50.895Z,3712.00
2019-05-29T05:07:50.880Z,3652.00
2019-05-29T05:08:50.989Z,3660.00
2019-05-29T05:09:50.862Z,3592.00
2019-05-29T05:10:50.847Z,3444.00
2019-05-29T05:11:50.835Z,3156.00
2019-05-29T05:12:50.839Z,2944.00
2019-05-29T05:13:50.818Z,2836.00
2019-05-29T05:14:50.877Z,3028.00
2019-05-29T05:15:50.864Z,3344.00
2019-05-29T05:16:50.789Z,3276.00
2019-05-29T05:17:50.775Z,3232.00
2019-05-29T05:18:50.761Z,3416.00
2019-05-29T05:19:50.754Z,3748.00
2019-05-29T05:20:50.896Z,4044.00
2019-05-29T05:21:50.727Z,4360.00
2019-05-29T05:22:50.714Z,4700.00
2019-05-29T05:23:50.710Z,4840.00
2019-05-29T05:24:50.695Z,5368.00
2019-05-29T05:25:50.794Z,6820.00
2019-05-29T05:26:50.684Z,5664.00
2019-05-29T05:27:50.656Z,6352.00
2019-05-29T05:28:50.687Z,5916.00
2019-05-29T05:29:50.635Z,4792.00
2019-05-29T05:30:50.627Z,4760.00
2019-05-29T05:31:50.732Z,4840.00
2019-05-29T05:32:50.609Z,4944.00
2019-05-29T05:33:50.595Z,5068.00
2019-05-29T05:34:50.580Z,5192.00
2019-05-29T05:35:50.569Z,5308.00
2019-05-29T05:36:50.648Z,5528.00
2019-05-29T05:37:50.552Z,5436.00
2019-05-29T05:38:50.625Z,5352.00
2019-05-29T05:39:50.528Z,5648.00
2019-05-29T05:40:50.519Z,5848.00
2019-05-29T05:41:50.570Z,6076.00
2019-05-29T05:42:50.491Z,6040.00
2019-05-29T05:43:50.478Z,6156.00
2019-05-29T05:44:50.474Z,6280.00
2019-05-29T05:45:50.547Z,6172.00
2019-05-29T05:46:50.537Z,6392.00
2019-05-29T05:47:57.283Z,6124.00
2019-05-29T05:48:51.424Z,6168.00
2019-05-29T05:49:50.417Z,6088.00
2019-05-29T05:50:51.315Z,6168.00
2019-05-29T05:51:50.408Z,6372.00
2019-05-29T05:52:50.446Z,6892.00
2019-05-29T05:53:50.377Z,7324.00
2019-05-29T05:54:50.361Z,8108.00
2019-05-29T05:55:50.350Z,7924.00
2019-05-29T05:56:53.456Z,7852.00
2019-05-29T05:57:50.414Z,7932.00
2019-05-29T05:58:50.319Z,8212.00
2019-05-29T05:59:50.303Z,8456.00
2019-05-29T06:00:50.294Z,8264.00
2019-05-29T06:01:50.395Z,8144.00
2019-05-29T06:02:52.263Z,7304.00
2019-05-29T06:03:50.285Z,6616.00
2019-05-29T06:04:50.253Z,6404.00
2019-05-29T06:05:50.245Z,5928.00
2019-05-29T06:06:50.221Z,5680.00
2019-05-29T06:07:50.210Z,5428.00
2019-05-29T06:08:50.207Z,5188.00
2019-05-29T06:09:50.214Z,5172.00
2019-05-29T06:10:51.269Z,5256.00
2019-05-29T06:11:50.173Z,5508.00
2019-05-29T06:12:50.171Z,5656.00
2019-05-29T06:13:50.163Z,5944.00
2019-05-29T06:14:50.225Z,10492.00
2019-05-29T06:15:50.123Z,9644.00
2019-05-29T06:16:50.115Z,8512.00
2019-05-29T06:18:10.124Z,7432.00
2019-05-29T06:18:51.114Z,9576.00
2019-05-29T06:19:50.268Z,9376.00
2019-05-29T06:20:50.407Z,9452.00
2019-05-29T06:21:50.173Z,9524.00
2019-05-29T06:22:50.049Z,9764.00
2019-05-29T06:23:50.163Z,10324.00
2019-05-29T06:24:50.260Z,9688.00
2019-05-29T06:25:50.016Z,9808.00
2019-05-29T06:26:50.029Z,9900.00
2019-05-29T06:27:49.990Z,10064.00
2019-05-29T06:28:49.983Z,10184.00
2019-05-29T06:29:49.972Z,10396.00
2019-05-29T06:30:49.999Z,10296.00
2019-05-29T06:31:50.041Z,10132.00
2019-05-29T06:32:49.941Z,10248.00
2019-05-29T06:33:49.931Z,10660.00
2019-05-29T06:34:49.921Z,10428.00
2019-05-29T06:35:49.983Z,10832.00
2019-05-29T06:36:54.899Z,11364.00
2019-05-29T06:37:49.876Z,11144.00
2019-05-29T06:38:49.873Z,10656.00
2019-05-29T06:39:49.863Z,10956.00
2019-05-29T06:40:49.845Z,11816.00
2019-05-29T06:41:49.860Z,12176.00
2019-05-29T06:42:49.831Z,12056.00
2019-05-29T06:43:49.817Z,12048.00
2019-05-29T06:44:50.174Z,11728.00
2019-05-29T06:45:49.817Z,11552.00
2019-05-29T06:46:49.788Z,11736.00
2019-05-29T06:47:49.799Z,12040.00
2019-05-29T06:48:59.322Z,12252.00
2019-05-29T06:49:50.745Z,11500.00
2019-05-29T06:50:49.741Z,10656.00
2019-05-29T06:51:49.727Z,9620.00
2019-05-29T06:52:50.025Z,10276.00
2019-05-29T06:53:49.703Z,10640.00
2019-05-29T06:54:51.354Z,9984.00
2019-05-29T06:55:54.018Z,10792.00
2019-05-29T06:56:50.666Z,11184.00
2019-05-29T06:57:49.678Z,8584.00
2019-05-29T06:58:49.665Z,11000.00
2019-05-29T06:59:49.636Z,10868.00
2019-05-29T07:00:49.716Z,12332.00
2019-05-29T07:01:49.722Z,13044.00
2019-05-29T07:02:49.602Z,13380.00
2019-05-29T07:03:49.608Z,12892.00
2019-05-29T07:04:49.869Z,10324.00
2019-05-29T07:05:52.337Z,10928.00
2019-05-29T07:06:49.561Z,11980.00
2019-05-29T07:07:49.654Z,12100.00
2019-05-29T07:08:50.322Z,11948.00
2019-05-29T07:09:49.522Z,11656.00
2019-05-29T07:10:49.529Z,11540.00
2019-05-29T07:11:49.507Z,11728.00
2019-05-29T07:12:49.491Z,11700.00
2019-05-29T07:13:50.580Z,11680.00
2019-05-29T07:14:49.537Z,12260.00
2019-05-29T07:15:49.476Z,12548.00
2019-05-29T07:16:55.597Z,13220.00
2019-05-29T07:17:50.435Z,12748.00
2019-05-29T07:19:24.235Z,12256.00
2019-05-29T07:20:02.337Z,12112.00
2019-05-29T07:20:50.404Z,12596.00
2019-05-29T07:21:49.396Z,13024.00
2019-05-29T07:22:49.393Z,12868.00
2019-05-29T07:23:49.377Z,12496.00
2019-05-29T07:24:49.450Z,12988.00
2019-05-29T07:25:49.351Z,13468.00
2019-05-29T07:26:49.340Z,13248.00
2019-05-29T07:27:49.330Z,5676.00
2019-05-29T07:29:07.277Z,6184.00
2019-05-29T07:29:50.392Z,8544.00
2019-05-29T07:30:59.675Z,12920.00
2019-05-29T07:31:50.368Z,12116.00
2019-05-29T07:32:56.946Z,4428.00
2019-05-29T07:33:50.260Z,3856.00
2019-05-29T07:35:02.357Z,4152.00
2019-05-29T07:35:50.324Z,4960.00
2019-05-29T07:36:49.228Z,6272.00
2019-05-29T07:37:49.231Z,6236.00
2019-05-29T07:39:00.464Z,5832.00
2019-05-29T07:39:50.194Z,5724.00
2019-05-29T07:40:50.157Z,12272.00
2019-05-29T07:41:49.259Z,12488.00
2019-05-29T07:42:55.164Z,13500.00
2019-05-29T07:43:50.222Z,6408.00
2019-05-29T07:44:49.142Z,8436.00
2019-05-29T07:45:49.132Z,15396.00
2019-05-29T07:46:49.237Z,14436.00
2019-05-29T07:47:49.111Z,13480.00
2019-05-29T07:48:50.375Z,14220.00
2019-05-29T07:49:50.334Z,15036.00
2019-05-29T07:50:49.075Z,15560.00
2019-05-29T07:51:49.189Z,15840.00
2019-05-29T07:52:49.382Z,14804.00
2019-05-29T07:53:49.073Z,15044.00
2019-05-29T07:54:49.958Z,16160.00
2019-05-29T07:55:49.163Z,17152.00
2019-05-29T07:56:49.104Z,9884.00
2019-05-29T07:57:49.051Z,7652.00
2019-05-29T07:59:00.710Z,8300.00
2019-05-29T07:59:49.971Z,11704.00
2019-05-29T08:01:09.624Z,8668.00
2019-05-29T08:01:50.048Z,8528.00
2019-05-29T08:02:49.513Z,8008.00
2019-05-29T08:03:49.714Z,11752.00
2019-05-29T08:04:49.792Z,18688.00
2019-05-29T08:05:51.558Z,7708.00
2019-05-29T08:06:54.187Z,5448.00
2019-05-29T08:07:49.976Z,5580.00
2019-05-29T08:08:49.542Z,6276.00
2019-05-29T08:09:49.828Z,13648.00
2019-05-29T08:10:49.740Z,14076.00
2019-05-29T08:11:50.132Z,14312.00
2019-05-29T08:12:54.337Z,14484.00
2019-05-29T08:13:50.085Z,15148.00
2019-05-29T08:14:50.164Z,16320.00
2019-05-29T08:15:57.587Z,17152.00
2019-05-29T08:16:50.124Z,18624.00
2019-05-29T08:17:50.162Z,18272.00
2019-05-29T08:18:52.022Z,18464.00
2019-05-29T08:20:05.387Z,18912.00
2019-05-29T08:20:50.336Z,18752.00
2019-05-29T08:21:48.737Z,20192.00
2019-05-29T08:22:48.813Z,25280.00
2019-05-29T08:23:48.713Z,33184.00
2019-05-29T08:24:49.454Z,40384.00
2019-05-29T08:25:49.607Z,48032.00
2019-05-29T08:26:48.971Z,56000.00
2019-05-29T08:27:48.984Z,65472.00
2019-05-29T08:28:48.913Z,72640.00
2019-05-29T08:29:48.880Z,78816.00
2019-05-29T08:30:54.361Z,84736.00
2019-05-29T08:31:50.915Z,67360.00
2019-05-29T08:32:49.253Z,82816.00
2019-05-29T08:33:48.999Z,19520.00
2019-05-29T08:34:49.088Z,72384.00
2019-05-29T08:35:57.607Z,11828.00
2019-05-29T08:37:05.466Z,45216.00
2019-05-29T08:37:49.563Z,12216.00
2019-05-29T08:38:49.306Z,80064.00
2019-05-29T08:39:49.558Z,16404.00
2019-05-29T08:40:49.547Z,13364.00
2019-05-29T08:42:19.291Z,8164.00
2019-05-29T08:42:49.579Z,6428.00
2019-05-29T08:43:48.519Z,8220.00
2019-05-29T08:44:50.076Z,84800.00
2019-05-29T08:45:49.636Z,85568.00
2019-05-29T08:47:06.355Z,86304.00
2019-05-29T08:47:49.774Z,76736.00
2019-05-29T08:48:48.455Z,21376.00
2019-05-29T08:49:52.511Z,83232.00
2019-05-29T08:50:49.973Z,86912.00
2019-05-29T08:51:48.408Z,82720.00
2019-05-29T08:52:48.405Z,91680.00
2019-05-29T08:53:48.826Z,66592.00
2019-05-29T08:54:48.383Z,88000.00
2019-05-29T08:55:49.027Z,83808.00
2019-05-29T08:56:48.438Z,15040.00
2019-05-29T08:57:48.519Z,40992.00
2019-05-29T08:58:48.452Z,18656.00
2019-05-29T08:59:48.505Z,38880.00
2019-05-29T09:00:51.890Z,76896.00
2019-05-29T09:01:52.327Z,86496.00
2019-05-29T09:02:49.302Z,46496.00
2019-05-29T09:03:48.909Z,85376.00
2019-05-29T09:04:49.813Z,77440.00
2019-05-29T09:06:04.933Z,57120.00
2019-05-29T09:06:49.306Z,91168.00
2019-05-29T09:07:49.821Z,98080.00
2019-05-29T09:08:49.935Z,18176.00
2019-05-29T09:09:49.072Z,28256.00
2019-05-29T09:10:49.480Z,21312.00
2019-05-29T09:11:49.917Z,99328.00
2019-05-29T09:12:56.691Z,99968.00
2019-05-29T09:13:49.180Z,92320.00
2019-05-29T09:14:48.207Z,92960.00
2019-05-29T09:15:48.246Z,92128.00
2019-05-29T09:16:48.244Z,92832.00
2019-05-29T09:17:48.133Z,25344.00
2019-05-29T09:18:48.124Z,9864.00
2019-05-29T09:19:48.796Z,10484.00
2019-05-29T09:21:01.886Z,9688.00
2019-05-29T09:21:49.182Z,92544.00
2019-05-29T09:22:48.085Z,82144.00
2019-05-29T09:23:48.076Z,45024.00
2019-05-29T09:24:48.067Z,75936.00
2019-05-29T09:25:48.056Z,99936.00
2019-05-29T09:26:48.103Z,97216.00
2019-05-29T09:27:48.147Z,98624.00
2019-05-29T09:28:48.034Z,94944.00
2019-05-29T09:29:48.009Z,90304.00
2019-05-29T09:30:48.166Z,92320.00
2019-05-29T09:31:47.995Z,17888.00
2019-05-29T09:32:50.879Z,95360.00
2019-05-29T09:33:48.063Z,95072.00
2019-05-29T09:34:47.957Z,20000.00
2019-05-29T09:35:47.954Z,12568.00
2019-05-29T09:36:47.982Z,34176.00
2019-05-29T09:37:47.926Z,10696.00
2019-05-29T09:38:48.209Z,12036.00
2019-05-29T09:39:47.921Z,42336.00
2019-05-29T09:40:47.899Z,18464.00
2019-05-29T09:41:47.885Z,11228.00
2019-05-29T09:42:47.889Z,103392.00
2019-05-29T09:43:58.284Z,9208.00
2019-05-29T09:44:48.861Z,8996.00
2019-05-29T09:45:47.846Z,104672.00
2019-05-29T09:46:47.830Z,102016.00
2019-05-29T09:47:47.821Z,96480.00
2019-05-29T09:48:50.064Z,101216.00
2019-05-29T09:49:47.837Z,98368.00
2019-05-29T09:50:50.497Z,67712.00
2019-05-29T09:51:47.785Z,95744.00
2019-05-29T09:52:47.777Z,94400.00
2019-05-29T09:53:47.963Z,96352.00
2019-05-29T09:54:47.834Z,97600.00
2019-05-29T09:55:47.783Z,20512.00
2019-05-29T09:56:47.735Z,10320.00
2019-05-29T09:57:47.724Z,9236.00
2019-05-29T09:58:47.710Z,7828.00
2019-05-29T09:59:47.791Z,8184.00
2019-05-29T10:00:47.707Z,14124.00
2019-05-29T10:47:47.418Z,100864.00
2019-05-29T10:48:26.107Z,103520.00
2019-05-29T10:49:26.097Z,105280.00
2019-05-29T10:50:26.105Z,102720.00
2019-05-29T10:51:26.067Z,67136.00
2019-05-29T10:52:26.042Z,9060.00
2019-05-29T10:53:26.063Z,92064.00
2019-05-29T10:54:26.038Z,6292.00
2019-05-29T10:55:26.017Z,89888.00
2019-05-29T10:56:26.006Z,91552.00
2019-05-29T10:57:25.998Z,94144.00
2019-05-29T10:58:25.989Z,97696.00
2019-05-29T10:59:25.983Z,100032.00
2019-05-29T11:00:25.963Z,99648.00
2019-05-29T11:01:25.956Z,98592.00
2019-05-29T11:02:25.945Z,95360.00
2019-05-29T11:03:25.933Z,96608.00
2019-05-29T11:04:25.998Z,94176.00
2019-05-29T11:05:25.913Z,96384.00
2019-05-29T11:06:25.904Z,8344.00
2019-05-29T11:07:25.895Z,6456.00
2019-05-29T11:08:25.888Z,93280.00
2019-05-29T11:09:25.879Z,94528.00
2019-05-29T11:10:25.878Z,93216.00
2019-05-29T11:11:25.872Z,83872.00
2019-05-29T11:12:25.841Z,47936.00
2019-05-29T11:13:25.833Z,16384.00
2019-05-29T11:14:25.819Z,10968.00
2019-05-29T11:15:25.816Z,12052.00
2019-05-29T11:16:25.814Z,9520.00
2019-05-29T11:17:25.790Z,7300.00
2019-05-29T11:18:25.811Z,9140.00
2019-05-29T11:19:26.219Z,11244.00
2019-05-29T11:20:25.762Z,10548.00
2019-05-29T11:21:25.798Z,9952.00
2019-05-29T11:22:26.761Z,9336.00
2019-05-29T11:23:25.728Z,8612.00
2019-05-29T11:24:25.720Z,8176.00
2019-05-29T11:25:27.695Z,8040.00
2019-05-29T11:26:25.698Z,7984.00
2019-05-29T11:27:26.255Z,7980.00
2019-05-29T11:28:25.713Z,7956.00
2019-05-29T11:29:25.667Z,8000.00
2019-05-29T11:30:25.654Z,8132.00
2019-05-29T11:31:25.637Z,8468.00
2019-05-29T11:32:25.630Z,8676.00
2019-05-29T11:33:25.627Z,9168.00
2019-05-29T11:34:25.649Z,9272.00
2019-05-29T11:35:25.602Z,9864.00
2019-05-29T11:36:25.585Z,11516.00
2019-05-29T11:37:25.577Z,12448.00
2019-05-29T11:38:25.568Z,10088.00
2019-05-29T11:39:25.599Z,8672.00
2019-05-29T11:40:25.573Z,8264.00
2019-05-29T11:41:26.783Z,8164.00
2019-05-29T11:42:27.874Z,8300.00
2019-05-29T11:43:25.511Z,8404.00
2019-05-29T11:44:25.507Z,9404.00
2019-05-29T11:45:25.533Z,10348.00
2019-05-29T11:46:25.554Z,9224.00
2019-05-29T11:47:25.469Z,8444.00
2019-05-29T11:48:25.456Z,8752.00
2019-05-29T11:49:25.450Z,9200.00
2019-05-29T11:50:25.454Z,8628.00
2019-05-29T11:51:25.434Z,9344.00
2019-05-29T11:52:41.788Z,10628.00
2019-05-29T11:53:26.404Z,10252.00
2019-05-29T11:54:25.392Z,10088.00
2019-05-29T11:55:25.403Z,11060.00
2019-05-29T11:56:25.393Z,7248.00
2019-05-29T11:57:25.365Z,7348.00
2019-05-29T11:58:30.962Z,8132.00
2019-05-29T11:59:26.350Z,13656.00
2019-05-29T12:00:25.335Z,12532.00
2019-05-29T12:01:25.329Z,11096.00
2019-05-29T12:02:25.313Z,10316.00
2019-05-29T12:03:25.296Z,9488.00
2019-05-29T12:04:26.802Z,9016.00
2019-05-29T12:05:25.281Z,8676.00
2019-05-29T12:06:25.276Z,8720.00
2019-05-29T12:07:25.261Z,8728.00
2019-05-29T12:08:25.239Z,8728.00
2019-05-29T12:09:32.702Z,8712.00
2019-05-29T12:10:26.221Z,8624.00
2019-05-29T12:11:25.211Z,8484.00
2019-05-29T12:12:25.221Z,8388.00
2019-05-29T12:13:25.202Z,8624.00
2019-05-29T12:14:25.227Z,8716.00
2019-05-29T12:15:25.171Z,8808.00
2019-05-29T12:16:25.163Z,9020.00
2019-05-29T12:17:25.168Z,9980.00
2019-05-29T12:18:25.140Z,6316.00
2019-05-29T12:19:25.129Z,4612.00
2019-05-29T12:20:28.213Z,4868.00
2019-05-29T12:21:25.105Z,4440.00
2019-05-29T12:22:25.101Z,4648.00
2019-05-29T12:23:26.853Z,6524.00
2019-05-29T12:24:25.072Z,10908.00
2019-05-29T12:25:25.090Z,10892.00
2019-05-29T12:26:25.049Z,4336.00
2019-05-29T12:27:25.044Z,10752.00
2019-05-29T12:28:25.041Z,9916.00
2019-05-29T12:29:25.038Z,9840.00
2019-05-29T12:30:25.011Z,10392.00
2019-05-29T12:31:25.009Z,11300.00
2019-05-29T12:32:24.985Z,11704.00
2019-05-29T12:33:24.987Z,11996.00
2019-05-29T12:34:24.973Z,11968.00
2019-05-29T12:35:24.955Z,11132.00
2019-05-29T12:36:24.955Z,10768.00
2019-05-29T12:37:24.941Z,9860.00
2019-05-29T12:38:24.939Z,9656.00
2019-05-29T12:39:24.917Z,10004.00
2019-05-29T12:40:24.927Z,10612.00
2019-05-29T12:41:24.895Z,11052.00
2019-05-29T12:42:24.880Z,11024.00
2019-05-29T12:43:27.842Z,11516.00
2019-05-29T12:44:24.864Z,12004.00
2019-05-29T12:45:24.853Z,11364.00
2019-05-29T12:46:24.837Z,11432.00
2019-05-29T12:47:24.826Z,12380.00
2019-05-29T12:48:24.882Z,12512.00
2019-05-29T12:49:24.832Z,11800.00
2019-05-29T12:50:24.797Z,11052.00
2019-05-29T12:51:24.784Z,10628.00
2019-05-29T12:52:24.779Z,9740.00
2019-05-29T12:53:30.398Z,10232.00
2019-05-29T12:54:25.784Z,9972.00
2019-05-29T12:55:24.751Z,4788.00
2019-05-29T12:56:24.751Z,7748.00
2019-05-29T12:57:24.728Z,9600.00
2019-05-29T12:58:24.713Z,5384.00
2019-05-29T12:59:24.715Z,8536.00
2019-05-29T13:00:24.701Z,10952.00
2019-05-29T13:01:24.692Z,10500.00
2019-05-29T13:02:24.672Z,10380.00